Time;durP1;ratioP1;P1;durP2;ratioP2;P2;SDS_P1;SDS_P2;PMS_P1;PMS_P2;Temp;Humidity;BMP_temperature;BMP_pressure;BME280_temperature;BME280_humidity;BME280_pressure;Samples;Min_cycle;Max_cycle;Signal;HPM_P1;HPM_P2
2020/12/03 00:01:08;;;;;;;18.63;2.67;;;;;;;-0.71;96.27;98748.14;3820816;76;396310;-79
2020/12/03 00:06:29;;;;;;;10.63;3.80;;;;;;;-0.80;98.57;98748.78;3757715;77;398156;-79
2020/12/03 00:11:37;;;;;;;4.70;2.63;;;;;;;-0.88;100.00;98747.53;3741804;78;396319;-79
2020/12/03 00:16:44;;;;;;;4.43;3.53;;;;;;;-0.81;100.00;98735.05;3742033;77;396096;-79
2020/12/03 00:21:55;;;;;;;6.40;3.13;;;;;;;-0.90;100.00;98723.34;3742766;78;390064;-78
2020/12/03 00:27:11;;;;;;;6.03;4.57;;;;;;;-0.89;100.00;98728.41;3766275;78;396283;-78
2020/12/03 00:32:16;;;;;;;2.63;2.43;;;;;;;-0.74;100.00;98725.87;3742134;78;396120;-79
2020/12/03 00:37:21;;;;;;;6.43;3.93;;;;;;;-0.86;100.00;98718.30;3742109;77;393981;-78
2020/12/03 00:42:26;;;;;;;3.40;3.10;;;;;;;-0.64;100.00;98714.61;3741837;78;396318;-78
2020/12/03 00:47:32;;;;;;;9.27;3.50;;;;;;;-0.79;100.00;98706.39;3742203;77;396287;-78
2020/12/03 00:52:38;;;;;;;1.53;1.43;;;;;;;-0.93;100.00;98690.25;3741973;78;396331;-78
2020/12/03 00:57:43;;;;;;;6.07;3.80;;;;;;;-0.97;100.00;98686.66;3742292;77;391906;-78
2020/12/03 01:02:49;;;;;;;3.33;2.10;;;;;;;-0.97;100.00;98679.34;3766166;77;396145;-78
2020/12/03 01:07:54;;;;;;;3.10;2.10;;;;;;;-0.94;100.00;98673.28;3740341;77;396069;-77
2020/12/03 01:13:01;;;;;;;13.03;5.80;;;;;;;-0.92;100.00;98668.31;3740848;78;394030;-78
2020/12/03 01:18:06;;;;;;;3.33;2.90;;;;;;;-0.78;100.00;98663.41;3740443;78;396033;-78
2020/12/03 01:23:12;;;;;;;8.77;5.67;;;;;;;-0.83;100.00;98661.48;3741074;78;390884;-78
2020/12/03 01:28:17;;;;;;;9.20;3.10;;;;;;;-0.85;100.00;98661.03;3741068;77;396322;-78
2020/12/03 01:33:22;;;;;;;5.47;2.83;;;;;;;-0.81;100.00;98656.55;3740300;77;396084;-78
2020/12/03 01:38:27;;;;;;;3.40;2.00;;;;;;;-0.71;100.00;98644.74;3740657;78;396093;-77
2020/12/03 01:43:33;;;;;;;2.53;2.40;;;;;;;-0.82;100.00;98636.06;3741013;78;396290;-77
2020/12/03 01:48:47;;;;;;;4.27;3.90;;;;;;;-0.68;100.00;98633.25;3740557;78;393951;-78
2020/12/03 01:53:55;;;;;;;4.43;3.20;;;;;;;-0.68;100.00;98630.55;3767182;78;396273;-78
2020/12/03 01:59:04;;;;;;;3.67;3.47;;;;;;;-0.74;100.00;98637.30;3754603;77;396087;-78
2020/12/03 02:04:09;;;;;;;4.83;4.53;;;;;;;-0.88;100.00;98627.39;3796425;76;386716;-77
2020/12/03 02:09:14;;;;;;;2.50;1.87;;;;;;;-0.87;100.00;98616.02;3796516;77;396064;-77
2020/12/03 02:14:20;;;;;;;0.83;0.63;;;;;;;-0.98;100.00;98611.63;3797828;77;383533;-79
2020/12/03 02:19:28;;;;;;;1.70;1.60;;;;;;;-0.92;100.00;98606.80;3796182;77;396040;-78
2020/12/03 02:24:42;;;;;;;6.77;3.43;;;;;;;-0.91;100.00;98588.14;3795650;77;396098;-79
2020/12/03 02:29:47;;;;;;;6.17;4.80;;;;;;;-0.91;100.00;98588.91;3796541;76;396077;-77
2020/12/03 02:34:52;;;;;;;5.07;4.37;;;;;;;-1.01;100.00;98577.20;3796196;77;396068;-77
2020/12/03 02:39:58;;;;;;;3.63;2.60;;;;;;;-0.93;100.00;98578.23;3796657;77;395337;-78
2020/12/03 02:45:03;;;;;;;1.80;1.70;;;;;;;-0.90;100.00;98587.02;3796508;77;396044;-77
2020/12/03 02:50:08;;;;;;;13.43;4.30;;;;;;;-1.07;100.00;98570.45;3796249;77;396306;-77
2020/12/03 02:55:13;;;;;;;3.90;3.10;;;;;;;-1.08;100.00;98569.45;3796271;77;396123;-77
2020/12/03 03:00:19;;;;;;;2.93;2.70;;;;;;;-1.20;100.00;98564.83;3800864;76;396094;-77
2020/12/03 03:05:24;;;;;;;15.93;4.13;;;;;;;-1.22;100.00;98561.67;3805095;77;398162;-77
2020/12/03 03:10:29;;;;;;;4.30;2.13;;;;;;;-1.10;100.00;98552.26;3804761;77;396039;-77
2020/12/03 03:15:34;;;;;;;2.70;2.23;;;;;;;-1.09;100.00;98546.28;3804993;76;396086;-77
2020/12/03 03:20:39;;;;;;;3.80;2.20;;;;;;;-1.16;100.00;98551.45;3804969;77;396072;-77
2020/12/03 03:25:45;;;;;;;2.20;2.00;;;;;;;-1.23;100.00;98552.58;3805208;77;394310;-77
2020/12/03 03:30:50;;;;;;;7.33;4.30;;;;;;;-1.28;100.00;98539.28;3805666;76;393949;-77
2020/12/03 03:35:55;;;;;;;3.07;1.20;;;;;;;-1.28;100.00;98556.81;3805014;77;394248;-77
2020/12/03 03:41:00;;;;;;;4.43;2.00;;;;;;;-1.30;100.00;98546.95;3804993;76;392889;-77
2020/12/03 03:46:06;;;;;;;5.03;4.63;;;;;;;-1.20;100.00;98537.05;3804536;76;396072;-78
2020/12/03 03:51:11;;;;;;;4.70;2.33;;;;;;;-1.12;100.00;98536.16;3804916;76;396082;-78
2020/12/03 03:56:16;;;;;;;3.53;2.90;;;;;;;-1.14;100.00;98536.50;3804937;76;396083;-77
2020/12/03 04:01:21;;;;;;;3.43;2.20;;;;;;;-1.32;100.00;98528.38;3798800;77;396087;-77
2020/12/03 04:06:26;;;;;;;8.90;3.47;;;;;;;-1.43;100.00;98522.41;3796845;76;391953;-77
2020/12/03 04:11:31;;;;;;;5.20;4.90;;;;;;;-1.34;100.00;98516.35;3815661;76;396025;-77
2020/12/03 04:16:36;;;;;;;3.33;1.97;;;;;;;-1.29;100.00;98516.13;3815507;76;396122;-76
2020/12/03 04:21:41;;;;;;;2.73;1.93;;;;;;;-1.22;100.00;98513.68;3815093;76;396024;-78
2020/12/03 04:26:47;;;;;;;6.20;1.90;;;;;;;-1.30;100.00;98495.69;3815333;76;394047;-78
2020/12/03 04:31:52;;;;;;;6.20;4.40;;;;;;;-1.37;100.00;98500.83;3815393;76;396250;-76
2020/12/03 04:36:57;;;;;;;2.70;2.10;;;;;;;-1.28;100.00;98494.77;3815333;76;396345;-78
2020/12/03 04:42:02;;;;;;;1.63;1.53;;;;;;;-1.37;100.00;98491.39;3816037;76;390033;-77
2020/12/03 04:53:01;;;;;;;2.17;1.90;;;;;;;-1.39;100.00;98480.95;3676865;78;396308;-78
2020/12/03 04:58:32;;;;;;;5.33;3.43;;;;;;;-1.29;100.00;98485.91;3696360;77;396051;-77
2020/12/03 05:03:44;;;;;;;2.10;2.00;;;;;;;-1.32;100.00;98482.52;3769413;77;393989;-77
2020/12/03 05:08:58;;;;;;;4.43;1.93;;;;;;;-1.28;100.00;98483.98;3759862;77;396131;-78
2020/12/03 05:14:06;;;;;;;1.37;1.27;;;;;;;-1.24;100.00;98482.97;3755856;77;387787;-78
2020/12/03 05:19:17;;;;;;;9.47;5.47;;;;;;;-1.22;100.00;98478.61;3755245;77;396018;-79
2020/12/03 05:24:22;;;;;;;12.37;3.63;;;;;;;-1.04;100.00;98477.23;3691170;78;393994;-78
2020/12/03 05:29:27;;;;;;;8.93;3.53;;;;;;;-1.08;100.00;98467.67;3682154;79;398126;-77
2020/12/03 05:34:32;;;;;;;6.63;4.70;;;;;;;-1.17;100.00;98460.83;3682963;78;396288;-77
2020/12/03 05:39:41;;;;;;;3.33;3.00;;;;;;;-1.05;100.00;98459.49;3681775;78;396321;-78
2020/12/03 05:44:54;;;;;;;2.83;2.00;;;;;;;-1.15;100.00;98447.80;3712010;78;396097;-79
2020/12/03 05:50:07;;;;;;;4.83;3.60;;;;;;;-1.09;100.00;98450.48;3751548;76;396082;-78
2020/12/03 05:55:15;;;;;;;7.17;6.40;;;;;;;-1.00;100.00;98443.05;3853325;76;396031;-79
2020/12/03 06:00:26;;;;;;;3.53;1.80;;;;;;;-1.14;100.00;98435.31;3758506;76;396275;-79
2020/12/03 06:06:00;;;;;;;17.03;4.83;;;;;;;-1.26;100.00;98426.44;3774265;77;400220;-78
2020/12/03 06:11:26;;;;;;;1.60;1.50;;;;;;;-1.23;100.00;98438.68;3752342;77;393208;-76
2020/12/03 06:16:47;;;;;;;1.90;1.80;;;;;;;-1.19;100.00;98421.25;3761686;77;396072;-78
2020/12/03 06:22:15;;;;;;;7.23;3.00;;;;;;;-1.21;100.00;98406.77;3752771;77;396041;-77
2020/12/03 06:27:54;;;;;;;2.70;2.50;;;;;;;-1.19;100.00;98401.02;3752663;77;396283;-78
2020/12/03 06:33:17;;;;;;;4.27;3.80;;;;;;;-1.16;100.00;98397.66;3736777;78;396081;-78
2020/12/03 06:38:31;;;;;;;7.60;2.53;;;;;;;-1.10;100.00;98394.94;3753403;77;393939;-78
2020/12/03 06:43:39;;;;;;;2.20;2.00;;;;;;;-1.09;100.00;98397.86;3752907;77;393954;-79
2020/12/03 06:48:47;;;;;;;13.93;3.70;;;;;;;-1.01;100.00;98396.38;3752476;77;400527;-77
2020/12/03 06:54:18;;;;;;;5.07;2.63;;;;;;;-1.03;100.00;98393.25;3692437;79;395022;-79
2020/12/03 06:59:48;;;;;;;7.10;2.50;;;;;;;-1.06;100.00;98386.41;3709724;78;395077;-79
2020/12/03 07:05:23;;;;;;;2.93;1.63;;;;;;;-1.07;100.00;98393.69;3753205;77;388826;-77
2020/12/03 07:11:00;;;;;;;3.20;3.00;;;;;;;-1.10;100.00;98390.89;3754089;77;396316;-78
2020/12/03 07:16:40;;;;;;;7.17;5.47;;;;;;;-1.05;100.00;98373.91;3755246;77;393957;-78
2020/12/03 07:21:58;;;;;;;3.40;3.13;;;;;;;-1.02;100.00;98369.73;3754671;77;396077;-78
2020/12/03 07:27:29;;;;;;;11.23;3.70;;;;;;;-1.02;100.00;98371.08;3753835;77;395027;-78
2020/12/03 07:32:57;;;;;;;3.10;2.80;;;;;;;-1.00;100.00;98349.95;3754291;77;396068;-78
2020/12/03 07:38:05;;;;;;;9.90;4.47;;;;;;;-0.91;100.00;98358.69;3754852;77;396267;-77
2020/12/03 07:43:23;;;;;;;16.53;3.63;;;;;;;-0.89;100.00;98353.75;3729573;78;396276;-77
2020/12/03 07:48:43;;;;;;;1.63;1.53;;;;;;;-0.92;100.00;98351.14;3721758;78;396281;-76
2020/12/03 07:54:08;;;;;;;8.27;3.23;;;;;;;-0.86;100.00;98346.30;3770855;76;396123;-78
2020/12/03 07:59:29;;;;;;;10.17;4.90;;;;;;;-0.81;100.00;98343.56;3765780;77;396303;-77
2020/12/03 08:04:37;;;;;;;2.27;2.17;;;;;;;-0.69;100.00;98343.53;3776135;78;396132;-76
2020/12/03 08:09:47;;;;;;;6.67;5.10;;;;;;;-0.61;100.00;98323.69;3753089;77;396062;-77
2020/12/03 08:14:54;;;;;;;2.70;2.50;;;;;;;-0.58;100.00;98329.77;3752619;78;396081;-77
2020/12/03 08:20:17;;;;;;;1.63;1.53;;;;;;;-0.63;100.00;98315.14;3776078;77;394004;-76
2020/12/03 08:25:29;;;;;;;6.60;4.10;;;;;;;-0.62;100.00;98311.89;3778386;77;396070;-78
2020/12/03 08:30:36;;;;;;;3.43;1.33;;;;;;;-0.50;100.00;98304.52;3752881;77;393954;-78
2020/12/03 08:35:43;;;;;;;8.03;4.13;;;;;;;-0.40;100.00;98299.94;3752444;77;396058;-76
2020/12/03 08:40:50;;;;;;;7.63;4.63;;;;;;;-0.39;100.00;98298.80;3753858;77;392179;-80
2020/12/03 08:46:07;;;;;;;4.27;2.43;;;;;;;-0.34;100.00;98299.92;3753243;77;390856;-78
2020/12/03 08:51:12;;;;;;;4.70;4.30;;;;;;;-0.34;100.00;98299.92;3751938;77;396303;-77
2020/12/03 08:56:20;;;;;;;8.60;4.20;;;;;;;-0.25;100.00;98295.14;3752570;78;396292;-78
2020/12/03 09:01:27;;;;;;;2.40;2.30;;;;;;;-0.23;100.00;98294.20;3800492;76;396063;-77
2020/12/03 09:06:35;;;;;;;8.00;6.63;;;;;;;-0.21;100.00;98282.48;3820048;76;391923;-77
2020/12/03 09:11:40;;;;;;;4.20;3.90;;;;;;;-0.14;100.00;98269.14;3819206;76;396118;-77
2020/12/03 09:16:48;;;;;;;15.13;4.80;;;;;;;-0.09;100.00;98267.55;3818618;76;398265;-77
2020/12/03 09:21:56;;;;;;;2.80;2.50;;;;;;;-0.02;100.00;98260.95;3818979;76;396027;-81
2020/12/03 09:27:04;;;;;;;5.23;1.67;;;;;;;0.05;100.00;98257.84;3777152;76;394003;-78
2020/12/03 09:32:15;;;;;;;9.07;3.83;;;;;;;0.10;100.00;98233.25;3798390;76;394047;-78
2020/12/03 09:37:20;;;;;;;2.70;2.60;;;;;;;0.11;100.00;98219.16;3770900;77;396092;-78
2020/12/03 09:42:27;;;;;;;4.90;4.23;;;;;;;0.16;100.00;98212.91;3788920;76;396062;-78
2020/12/03 09:47:34;;;;;;;2.23;1.43;;;;;;;0.18;100.00;98207.14;3813711;76;391898;-77
2020/12/03 09:52:44;;;;;;;4.80;4.30;;;;;;;0.15;100.00;98197.81;3795710;76;396069;-78
2020/12/03 09:57:57;;;;;;;4.63;3.70;;;;;;;0.17;100.00;98198.81;3770097;77;396279;-77
2020/12/03 10:03:39;;;;;;;2.63;2.40;;;;;;;0.20;100.00;98190.77;3750939;77;396275;-78
2020/12/03 10:08:47;;;;;;;8.03;5.40;;;;;;;0.30;100.00;98181.34;3770591;77;394052;-78
2020/12/03 10:14:17;;;;;;;1.90;1.77;;;;;;;0.34;100.00;98180.83;3709559;77;396294;-79
2020/12/03 10:19:25;;;;;;;3.47;2.13;;;;;;;0.42;100.00;98168.47;3814799;76;396382;-76
2020/12/03 10:24:39;;;;;;;2.57;2.37;;;;;;;0.56;100.00;98155.23;3743645;77;396070;-77
2020/12/03 10:29:47;;;;;;;15.03;4.80;;;;;;;0.74;100.00;98148.80;3759326;76;396283;-76
2020/12/03 10:34:54;;;;;;;2.30;2.10;;;;;;;0.78;100.00;98134.78;3750139;77;396054;-76
2020/12/03 10:40:17;;;;;;;5.27;3.57;;;;;;;0.89;100.00;98130.53;3749877;77;396041;-78
2020/12/03 10:45:26;;;;;;;4.00;3.60;;;;;;;1.06;100.00;98125.25;3751439;78;388779;-77
2020/12/03 10:50:55;;;;;;;5.63;3.27;;;;;;;1.14;100.00;98119.58;3776823;77;396267;-77
2020/12/03 10:56:06;;;;;;;5.17;4.67;;;;;;;1.20;100.00;98114.09;3752041;77;396105;-77
2020/12/03 11:01:20;;;;;;;4.80;2.03;;;;;;;1.37;100.00;98096.00;3667755;79;396047;-78
2020/12/03 11:06:28;;;;;;;5.53;4.00;;;;;;;1.47;100.00;98088.59;3629913;80;396045;-77
2020/12/03 11:11:36;;;;;;;9.30;3.30;;;;;;;1.55;100.00;98087.55;3649786;80;393981;-77
2020/12/03 11:16:59;;;;;;;15.50;4.27;;;;;;;1.59;100.00;98081.63;3649987;80;392117;-75
2020/12/03 11:22:29;;;;;;;3.60;3.27;;;;;;;1.67;100.00;98086.77;3629605;80;396060;-76
2020/12/03 11:27:39;;;;;;;11.80;3.70;;;;;;;1.80;100.00;98083.27;3630346;80;396033;-76
2020/12/03 11:32:47;;;;;;;9.73;5.13;;;;;;;1.77;100.00;98071.23;3649756;80;396092;-75
2020/12/03 11:37:53;;;;;;;4.13;3.30;;;;;;;1.85;100.00;98060.70;3657899;79;396060;-76
2020/12/03 11:53:32;;;;;;;3.23;2.50;;;;;;;1.87;100.00;98054.34;3657665;77;391905;-75
2020/12/03 11:58:37;;;;;;;11.07;4.60;;;;;;;2.02;100.00;98040.40;3713350;76;396087;-74
2020/12/03 12:03:45;;;;;;;3.00;2.80;;;;;;;2.13;100.00;98031.80;3817217;76;396024;-75
2020/12/03 12:09:08;;;;;;;9.03;5.30;;;;;;;2.31;100.00;98028.72;3791799;77;396079;-75
2020/12/03 12:14:02;;;;;;;10.23;2.90;;;;;;;2.39;100.00;98014.85;3790244;77;396119;-76
2020/12/03 12:19:07;;;;;;;8.00;2.93;;;;;;;2.53;100.00;98015.80;3786249;76;394990;-75
2020/12/03 12:24:12;;;;;;;4.43;4.13;;;;;;;2.45;100.00;98018.81;3788425;76;396029;-76
2020/12/03 12:29:17;;;;;;;7.30;3.70;;;;;;;2.36;100.00;98008.23;3790377;76;396063;-76
2020/12/03 12:34:22;;;;;;;4.10;2.27;;;;;;;2.60;100.00;97988.71;3795961;76;391888;-76
2020/12/03 12:39:28;;;;;;;2.93;2.50;;;;;;;2.75;99.86;97959.77;3778084;77;396086;-78
2020/12/03 12:44:35;;;;;;;4.57;3.53;;;;;;;3.02;99.91;97951.65;3798835;76;396273;-77
2020/12/03 12:49:40;;;;;;;2.90;2.00;;;;;;;2.98;99.53;97944.84;3803650;76;396329;-76
2020/12/03 12:54:45;;;;;;;2.10;1.63;;;;;;;2.85;98.93;97929.98;3816616;76;396278;-76
2020/12/03 12:59:50;;;;;;;3.67;3.33;;;;;;;2.63;99.74;97936.95;3792200;76;396322;-76
2020/12/03 13:04:55;;;;;;;4.80;2.50;;;;;;;2.68;99.59;97929.84;3759872;77;391895;-76
2020/12/03 13:10:00;;;;;;;8.40;3.70;;;;;;;2.72;100.00;97928.72;3755573;77;396014;-76
2020/12/03 13:15:05;;;;;;;4.93;2.17;;;;;;;2.75;99.41;97932.02;3758587;77;396079;-75
2020/12/03 13:20:10;;;;;;;1.63;1.07;;;;;;;2.64;98.64;97920.87;3767409;77;389823;-76
2020/12/03 13:25:15;;;;;;;5.97;3.53;;;;;;;2.52;99.45;97924.66;3754095;78;396055;-76
2020/12/03 13:30:21;;;;;;;10.10;1.97;;;;;;;2.45;100.00;97914.33;3755609;77;398207;-77
2020/12/03 13:35:26;;;;;;;3.80;2.40;;;;;;;2.57;100.00;97905.33;3766517;77;396337;-77
2020/12/03 13:40:31;;;;;;;3.07;2.87;;;;;;;2.55;100.00;97884.56;3752142;78;396296;-77
2020/12/03 13:45:36;;;;;;;5.17;4.73;;;;;;;2.61;100.00;97875.50;3758259;77;396144;-77
2020/12/03 13:50:42;;;;;;;4.60;4.20;;;;;;;2.48;100.00;97862.00;3766479;77;396033;-78
2020/12/03 13:55:47;;;;;;;3.77;2.73;;;;;;;2.24;100.00;97852.31;3733910;77;396121;-78
2020/12/03 14:00:53;;;;;;;8.40;4.37;;;;;;;2.13;100.00;97844.09;3723820;78;396028;-78
2020/12/03 14:05:59;;;;;;;12.03;1.87;;;;;;;1.98;100.00;97834.83;3747345;78;398105;-78
2020/12/03 14:11:04;;;;;;;3.90;2.83;;;;;;;1.79;100.00;97825.53;3752178;78;396268;-77
2020/12/03 14:16:09;;;;;;;2.90;2.57;;;;;;;1.74;100.00;97827.23;3751665;77;393145;-77
2020/12/03 14:21:14;;;;;;;2.03;1.30;;;;;;;1.56;100.00;97805.94;3765769;76;396077;-77
2020/12/03 14:26:19;;;;;;;3.50;2.43;;;;;;;1.49;100.00;97802.39;3751684;78;389815;-77
2020/12/03 14:31:25;;;;;;;2.90;1.77;;;;;;;1.45;100.00;97803.70;3752046;76;396049;-76
2020/12/03 14:36:30;;;;;;;8.80;6.00;;;;;;;1.40;100.00;97793.77;3756570;77;396056;-78
2020/12/03 14:41:36;;;;;;;5.57;3.50;;;;;;;1.46;100.00;97791.69;3766315;77;396309;-75
2020/12/03 14:46:41;;;;;;;3.07;2.47;;;;;;;1.45;100.00;97777.97;3758849;77;396125;-76
2020/12/03 14:51:59;;;;;;;11.53;6.33;;;;;;;1.46;100.00;97775.44;3754523;77;393949;-76
2020/12/03 14:56:57;;;;;;;1.90;1.73;;;;;;;1.42;100.00;97771.92;3813851;76;391909;-76
2020/12/03 15:02:21;;;;;;;6.83;3.07;;;;;;;1.42;100.00;97771.12;3764906;77;393995;-75
2020/12/03 15:07:23;;;;;;;1.63;1.17;;;;;;;1.30;100.00;97770.81;3754859;78;396017;-76
2020/12/03 15:12:28;;;;;;;4.30;2.67;;;;;;;1.27;100.00;97757.23;3754818;78;396073;-75
2020/12/03 15:17:35;;;;;;;1.07;0.90;;;;;;;1.25;100.00;97751.42;3755194;77;391902;-76
2020/12/03 15:22:40;;;;;;;10.40;4.03;;;;;;;1.18;100.00;97741.29;3754621;77;398226;-76
2020/12/03 15:27:45;;;;;;;3.40;2.90;;;;;;;1.14;100.00;97728.86;3753083;77;396259;-75
2020/12/03 15:32:54;;;;;;;1.70;1.60;;;;;;;1.10;100.00;97727.47;3751380;77;396015;-74
2020/12/03 15:38:17;;;;;;;2.23;1.70;;;;;;;0.97;100.00;97716.66;3652828;79;394191;-74
2020/12/03 15:43:22;;;;;;;16.00;2.53;;;;;;;0.99;100.00;97710.91;3648228;80;396286;-74
2020/12/03 15:48:35;;;;;;;7.40;2.33;;;;;;;0.88;100.00;97706.73;3648639;80;396155;-75
2020/12/03 15:53:41;;;;;;;2.60;2.37;;;;;;;0.87;100.00;97703.02;3649198;80;396302;-75
2020/12/03 15:58:46;;;;;;;2.90;2.40;;;;;;;0.92;100.00;97694.58;3650329;80;396040;-74
2020/12/03 16:03:51;;;;;;;5.37;2.00;;;;;;;0.83;100.00;97687.33;3636971;80;396098;-74
2020/12/03 16:08:56;;;;;;;2.50;2.30;;;;;;;0.81;100.00;97684.97;3586933;80;396070;-73
2020/12/03 16:14:01;;;;;;;6.23;5.80;;;;;;;0.82;100.00;97680.35;3587149;81;396066;-75
2020/12/03 16:19:07;;;;;;;10.70;2.13;;;;;;;0.79;100.00;97669.70;3587223;81;394989;-74
2020/12/03 16:24:12;;;;;;;3.23;1.80;;;;;;;0.75;100.00;97656.48;3603502;80;396068;-75
2020/12/03 16:29:18;;;;;;;3.20;2.37;;;;;;;0.73;100.00;97643.91;3628055;80;396111;-76
2020/12/03 16:34:23;;;;;;;6.13;3.13;;;;;;;0.72;100.00;97637.70;3674170;77;396107;-75
2020/12/03 16:39:28;;;;;;;4.90;2.53;;;;;;;0.75;100.00;97626.70;3756004;77;396232;-77
2020/12/03 16:44:33;;;;;;;8.63;3.37;;;;;;;0.71;100.00;97625.32;3757566;77;396089;-77
2020/12/03 16:49:38;;;;;;;3.80;3.50;;;;;;;0.66;100.00;97625.66;3744953;78;396081;-76
2020/12/03 16:54:43;;;;;;;4.67;4.07;;;;;;;0.71;100.00;97635.38;3755575;77;389831;-75
2020/12/03 16:59:48;;;;;;;5.10;2.30;;;;;;;0.79;100.00;97629.66;3749581;77;396076;-76
2020/12/03 17:04:53;;;;;;;1.87;1.10;;;;;;;0.75;100.00;97631.56;3756281;78;390038;-76
2020/12/03 17:09:59;;;;;;;2.63;2.40;;;;;;;0.73;100.00;97610.85;3776251;77;396283;-75
2020/12/03 17:15:04;;;;;;;2.23;2.03;;;;;;;0.68;100.00;97609.05;3776257;77;396271;-77
2020/12/03 17:20:10;;;;;;;2.50;2.30;;;;;;;0.69;100.00;97605.20;3779077;77;396070;-78
2020/12/03 17:25:15;;;;;;;13.63;5.67;;;;;;;0.71;100.00;97599.61;3734625;77;396014;-78
2020/12/03 17:30:20;;;;;;;9.10;3.50;;;;;;;0.64;100.00;97586.60;3782733;77;396329;-78
2020/12/03 17:35:26;;;;;;;5.20;2.90;;;;;;;0.71;100.00;97589.38;3780086;77;394003;-79
2020/12/03 17:40:32;;;;;;;2.00;1.77;;;;;;;0.71;100.00;97583.97;3772345;78;391867;-79
2020/12/03 17:45:37;;;;;;;3.17;2.97;;;;;;;0.66;100.00;97562.08;3778915;77;396283;-79
2020/12/03 17:50:43;;;;;;;2.90;2.50;;;;;;;0.61;100.00;97547.52;3770361;77;396279;-79
2020/12/03 17:55:48;;;;;;;21.07;3.70;;;;;;;0.65;100.00;97532.70;3748337;77;400208;-79
2020/12/03 18:00:53;;;;;;;5.47;3.63;;;;;;;0.57;100.00;97527.78;3753640;78;386654;-79
2020/12/03 18:05:58;;;;;;;9.30;2.77;;;;;;;0.55;100.00;97522.55;3779610;77;396096;-78
2020/12/03 18:11:03;;;;;;;7.40;3.53;;;;;;;0.51;100.00;97510.34;3777878;77;396136;-78
2020/12/03 18:16:08;;;;;;;6.10;2.73;;;;;;;0.55;100.00;97494.14;3780466;77;396088;-78
2020/12/03 18:21:19;;;;;;;2.50;2.00;;;;;;;0.42;100.00;97484.73;3792854;76;393952;-78
2020/12/03 18:26:29;;;;;;;1.77;1.67;;;;;;;0.35;100.00;97476.55;3805760;76;396064;-77
2020/12/03 18:31:43;;;;;;;8.83;3.70;;;;;;;0.29;100.00;97472.63;3778114;77;396063;-75
2020/12/03 18:36:48;;;;;;;1.23;1.13;;;;;;;0.17;100.00;97471.53;3814256;76;391857;-76
2020/12/03 18:41:55;;;;;;;2.63;1.77;;;;;;;0.05;100.00;97468.52;3798200;76;396035;-75
2020/12/03 18:47:00;;;;;;;4.07;2.10;;;;;;;-0.04;100.00;97463.20;3798541;76;396309;-75
2020/12/03 18:52:06;;;;;;;8.13;2.07;;;;;;;-0.17;100.00;97454.36;3801168;76;396064;-76
2020/12/03 18:57:11;;;;;;;7.50;1.80;;;;;;;-0.23;100.00;97456.60;3696373;77;392138;-75
2020/12/03 19:02:16;;;;;;;2.03;1.37;;;;;;;-0.30;100.00;97437.61;3762689;78;396287;-76
2020/12/03 19:07:24;;;;;;;9.53;3.87;;;;;;;-0.42;100.00;97416.82;3776383;77;392903;-75
2020/12/03 19:12:28;;;;;;;9.93;3.30;;;;;;;-0.32;100.00;97423.69;3752983;78;398112;-76
2020/12/03 19:17:33;;;;;;;9.90;2.83;;;;;;;-0.43;100.00;97422.81;3776931;77;385641;-76
2020/12/03 19:22:39;;;;;;;3.50;2.00;;;;;;;-0.63;100.00;97410.59;3777374;77;392971;-76
2020/12/03 19:27:44;;;;;;;1.37;1.23;;;;;;;-0.81;100.00;97401.48;3755377;78;383585;-76
2020/12/03 19:32:49;;;;;;;3.53;2.40;;;;;;;-0.81;100.00;97416.14;3775199;77;383564;-76
2020/12/03 19:37:54;;;;;;;4.63;2.97;;;;;;;-0.87;100.00;97405.44;3740428;77;396034;-76
2020/12/03 19:43:00;;;;;;;2.33;2.23;;;;;;;-0.95;100.00;97383.55;3702339;79;396081;-76
2020/12/03 19:48:05;;;;;;;1.37;1.27;;;;;;;-0.99;100.00;97374.65;3702995;79;393999;-76
2020/12/03 19:53:10;;;;;;;2.90;2.60;;;;;;;-1.07;100.00;97362.97;3702753;79;394018;-76
2020/12/03 19:58:15;;;;;;;6.37;3.23;;;;;;;-1.12;100.00;97353.06;3680580;77;396164;-76
2020/12/03 20:03:20;;;;;;;3.27;2.97;;;;;;;-1.14;100.00;97344.58;3730945;77;396019;-77
2020/12/03 20:08:26;;;;;;;4.83;4.20;;;;;;;-1.15;100.00;97342.44;3730567;78;396330;-77
2020/12/03 20:13:33;;;;;;;6.00;1.70;;;;;;;-1.17;100.00;97348.00;3730025;77;396387;-75
2020/12/03 20:18:39;;;;;;;1.40;1.30;;;;;;;-1.26;100.00;97332.65;3730963;78;393160;-75
2020/12/03 20:23:44;;;;;;;4.10;3.13;;;;;;;-1.35;100.00;97325.39;3729946;78;396076;-76
2020/12/03 20:28:49;;;;;;;3.57;3.30;;;;;;;-1.39;100.00;97311.10;3726887;78;396081;-77
2020/12/03 20:33:55;;;;;;;4.00;2.73;;;;;;;-1.29;100.00;97287.52;3713497;78;396081;-76
2020/12/03 20:39:00;;;;;;;8.93;2.87;;;;;;;-1.17;100.00;97281.91;3760694;76;396067;-76
2020/12/03 20:44:06;;;;;;;1.20;1.10;;;;;;;-1.14;100.00;97275.21;3779763;76;383583;-76
2020/12/03 20:49:11;;;;;;;1.20;1.10;;;;;;;-1.13;100.00;97260.58;3779844;76;392253;-77
2020/12/03 20:54:17;;;;;;;4.20;3.07;;;;;;;-1.16;100.00;97259.95;3779070;76;396270;-76
2020/12/03 20:59:22;;;;;;;3.83;3.53;;;;;;;-1.18;100.00;97252.03;3784359;76;391857;-76
2020/12/03 21:04:28;;;;;;;10.63;4.20;;;;;;;-1.16;100.00;97252.45;3826207;76;400422;-76
2020/12/03 21:09:33;;;;;;;4.73;3.23;;;;;;;-1.14;100.00;97248.23;3825472;76;396265;-76
2020/12/03 21:14:38;;;;;;;1.40;1.30;;;;;;;-1.12;100.00;97245.16;3816119;76;396067;-77
2020/12/03 21:19:43;;;;;;;1.73;1.60;;;;;;;-1.09;100.00;97244.44;3799521;75;391939;-77
2020/12/03 21:24:48;;;;;;;3.53;2.40;;;;;;;-1.08;100.00;97243.30;3848889;76;396082;-76
2020/12/03 21:29:53;;;;;;;1.50;1.40;;;;;;;-1.11;100.00;97235.92;3834796;76;396092;-77
2020/12/03 21:34:59;;;;;;;4.20;3.90;;;;;;;-1.10;100.00;97226.70;3770034;77;396073;-77
2020/12/03 21:40:04;;;;;;;5.00;1.70;;;;;;;-1.02;100.00;97210.23;3757516;77;394987;-76
2020/12/03 21:45:09;;;;;;;5.43;3.10;;;;;;;-0.90;100.00;97204.56;3739023;78;396328;-77
2020/12/03 21:50:15;;;;;;;2.00;1.23;;;;;;;-0.87;100.00;97201.69;3758420;77;386687;-77
2020/12/03 21:55:21;;;;;;;5.07;4.67;;;;;;;-0.86;100.00;97196.50;3757232;77;396109;-76
2020/12/03 22:00:26;;;;;;;7.03;3.07;;;;;;;-0.82;100.00;97185.18;3729654;77;398146;-76
2020/12/03 22:05:31;;;;;;;18.10;3.43;;;;;;;-0.76;100.00;97178.50;3684946;79;400318;-76
2020/12/03 22:10:36;;;;;;;7.50;2.20;;;;;;;-0.70;100.00;97171.60;3685609;79;394013;-77
2020/12/03 22:15:41;;;;;;;2.33;1.07;;;;;;;-0.63;100.00;97166.84;3685864;79;390913;-77
2020/12/03 22:20:46;;;;;;;5.97;4.70;;;;;;;-0.61;100.00;97155.88;3701998;78;391055;-77
2020/12/03 22:25:52;;;;;;;2.23;1.73;;;;;;;-0.60;100.00;97157.43;3765984;77;396279;-77
2020/12/03 22:30:57;;;;;;;4.93;3.43;;;;;;;-0.60;100.00;97149.89;3761705;77;394012;-77
2020/12/03 22:36:02;;;;;;;3.63;3.33;;;;;;;-0.55;100.00;97140.11;3734492;78;396023;-77
2020/12/03 22:41:07;;;;;;;3.50;2.97;;;;;;;-0.56;100.00;97129.88;3739172;78;387690;-77
2020/12/03 22:46:12;;;;;;;18.33;3.70;;;;;;;-0.40;100.00;97125.56;3826361;76;398427;-77
2020/12/03 22:51:19;;;;;;;4.60;3.23;;;;;;;-0.48;100.00;97111.22;3803676;76;396130;-77
2020/12/03 22:56:24;;;;;;;4.93;3.70;;;;;;;-0.45;100.00;97112.42;3823024;76;396122;-77
2020/12/03 23:01:32;;;;;;;13.50;4.50;;;;;;;-0.50;100.00;97092.50;3672507;77;396085;-76
2020/12/03 23:06:37;;;;;;;2.23;2.03;;;;;;;-0.57;100.00;97082.45;3688879;79;396181;-77
2020/12/03 23:11:42;;;;;;;1.87;1.57;;;;;;;-0.56;100.00;97069.71;3696114;78;393942;-78
2020/12/03 23:16:47;;;;;;;2.30;2.10;;;;;;;-0.65;100.00;97060.58;3687055;78;396089;-77
2020/12/03 23:21:52;;;;;;;2.50;2.30;;;;;;;-0.63;100.00;97055.58;3688704;79;396091;-76
2020/12/03 23:26:57;;;;;;;6.33;3.93;;;;;;;-0.51;100.00;97043.14;3688786;78;396322;-77
2020/12/03 23:32:02;;;;;;;9.03;2.77;;;;;;;-0.58;100.00;97038.26;3688237;79;394263;-77
2020/12/03 23:37:07;;;;;;;5.23;3.40;;;;;;;-0.60;100.00;97045.39;3688716;79;396097;-77
2020/12/03 23:42:12;;;;;;;4.50;2.00;;;;;;;-0.62;100.00;97036.13;3638554;79;396087;-77
2020/12/03 23:47:17;;;;;;;1.10;1.00;;;;;;;-0.63;100.00;97030.52;3621214;80;392919;-77
2020/12/03 23:52:22;;;;;;;11.20;2.93;;;;;;;-0.61;100.00;97033.05;3627950;80;400231;-76
2020/12/03 23:57:28;;;;;;;4.20;2.20;;;;;;;-0.66;100.00;97015.86;3631443;80;396318;-77
